sensor_id;sensor_type;location;lat;lon;timestamp;pressure;altitude;pressure_sealevel;temperature;humidity
47785;BME280;35233;55.686;37.848;2023-12-20T00:01:22;97929.34;;;19.32;37.67
47785;BME280;35233;55.686;37.848;2023-12-20T00:03:48;97923.41;;;19.28;37.68
47785;BME280;35233;55.686;37.848;2023-12-20T00:06:14;97940.91;;;19.32;37.67
47785;BME280;35233;55.686;37.848;2023-12-20T00:08:39;97941.03;;;19.31;37.55
47785;BME280;35233;55.686;37.848;2023-12-20T00:11:05;97938.06;;;19.34;37.45
47785;BME280;35233;55.686;37.848;2023-12-20T00:13:30;97938.91;;;19.34;37.66
47785;BME280;35233;55.686;37.848;2023-12-20T00:15:56;97939.06;;;19.33;37.39
47785;BME280;35233;55.686;37.848;2023-12-20T00:18:22;97931.47;;;19.38;37.44
47785;BME280;35233;55.686;37.848;2023-12-20T00:20:47;97928.19;;;19.34;37.32
47785;BME280;35233;55.686;37.848;2023-12-20T00:23:13;97950.50;;;19.35;37.22
47785;BME280;35233;55.686;37.848;2023-12-20T00:25:38;97945.81;;;19.37;37.44
47785;BME280;35233;55.686;37.848;2023-12-20T00:28:04;97944.97;;;19.36;37.33
47785;BME280;35233;55.686;37.848;2023-12-20T00:30:29;97950.19;;;19.38;37.32
47785;BME280;35233;55.686;37.848;2023-12-20T00:32:56;97943.28;;;19.35;37.12
47785;BME280;35233;55.686;37.848;2023-12-20T00:35:21;97949.22;;;19.39;37.23
47785;BME280;35233;55.686;37.848;2023-12-20T00:37:47;97942.47;;;19.35;37.19
47785;BME280;35233;55.686;37.848;2023-12-20T00:40:13;97941.16;;;19.39;37.25
47785;BME280;35233;55.686;37.848;2023-12-20T00:42:38;97944.84;;;19.38;36.99
47785;BME280;35233;55.686;37.848;2023-12-20T00:45:05;97952.59;;;19.41;37.07
47785;BME280;35233;55.686;37.848;2023-12-20T00:47:33;97945.69;;;19.38;37.03
47785;BME280;35233;55.686;37.848;2023-12-20T00:49:59;97959.63;;;19.42;36.91
47785;BME280;35233;55.686;37.848;2023-12-20T00:52:24;97949.75;;;19.42;37.03
47785;BME280;35233;55.686;37.848;2023-12-20T00:54:50;97960.75;;;19.39;37.05
47785;BME280;35233;55.686;37.848;2023-12-20T00:57:16;97954.72;;;19.37;37.27
47785;BME280;35233;55.686;37.848;2023-12-20T00:59:42;97949.75;;;19.42;36.94
47785;BME280;35233;55.686;37.848;2023-12-20T01:02:07;97949.91;;;19.41;37.16
47785;BME280;35233;55.686;37.848;2023-12-20T01:04:34;97949.63;;;19.44;37.07
47785;BME280;35233;55.686;37.848;2023-12-20T01:06:59;97945.84;;;19.47;36.77
47785;BME280;35233;55.686;37.848;2023-12-20T01:09:25;97939.06;;;19.42;37.12
47785;BME280;35233;55.686;37.848;2023-12-20T01:11:53;97939.75;;;19.44;36.94
47785;BME280;35233;55.686;37.848;2023-12-20T01:14:19;97929.06;;;19.44;36.79
47785;BME280;35233;55.686;37.848;2023-12-20T01:16:44;97921.44;;;19.40;37.13
47785;BME280;35233;55.686;37.848;2023-12-20T01:19:10;97931.59;;;19.46;37.07
47785;BME280;35233;55.686;37.848;2023-12-20T01:21:36;97929.19;;;19.43;37.07
47785;BME280;35233;55.686;37.848;2023-12-20T01:24:02;97919.75;;;19.39;37.11
47785;BME280;35233;55.686;37.848;2023-12-20T01:26:27;97926.50;;;19.43;36.90
47785;BME280;35233;55.686;37.848;2023-12-20T01:28:53;97921.31;;;19.41;37.12
47785;BME280;35233;55.686;37.848;2023-12-20T01:31:19;97909.31;;;19.45;36.83
47785;BME280;35233;55.686;37.848;2023-12-20T01:33:44;97914.13;;;19.42;36.85
47785;BME280;35233;55.686;37.848;2023-12-20T01:36:10;97916.38;;;19.47;36.89
47785;BME280;35233;55.686;37.848;2023-12-20T01:38:36;97919.34;;;19.43;36.98
47785;BME280;35233;55.686;37.848;2023-12-20T01:41:02;97917.50;;;19.44;36.90
47785;BME280;35233;55.686;37.848;2023-12-20T01:43:29;97923.00;;;19.42;36.88
47785;BME280;35233;55.686;37.848;2023-12-20T01:45:56;97908.63;;;19.43;36.95
47785;BME280;35233;55.686;37.848;2023-12-20T01:48:23;97912.00;;;19.45;36.74
47785;BME280;35233;55.686;37.848;2023-12-20T01:50:49;97913.97;;;19.43;36.89
47785;BME280;35233;55.686;37.848;2023-12-20T01:53:15;97900.16;;;19.48;36.84
47785;BME280;35233;55.686;37.848;2023-12-20T01:55:42;97896.78;;;19.46;36.72
47785;BME280;35233;55.686;37.848;2023-12-20T01:58:09;97893.97;;;19.48;36.60
47785;BME280;35233;55.686;37.848;2023-12-20T02:00:36;97889.88;;;19.43;36.85
47785;BME280;35233;55.686;37.848;2023-12-20T02:03:03;97894.13;;;19.46;36.73
47785;BME280;35233;55.686;37.848;2023-12-20T02:05:30;97902.00;;;19.48;36.87
47785;BME280;35233;55.686;37.848;2023-12-20T02:07:56;97895.78;;;19.47;36.87
47785;BME280;35233;55.686;37.848;2023-12-20T02:10:22;97899.47;;;19.46;36.43
47785;BME280;35233;55.686;37.848;2023-12-20T02:12:48;97895.25;;;19.43;36.58
47785;BME280;35233;55.686;37.848;2023-12-20T02:15:14;97903.00;;;19.47;36.68
47785;BME280;35233;55.686;37.848;2023-12-20T02:17:39;97899.59;;;19.44;36.69
47785;BME280;35233;55.686;37.848;2023-12-20T02:20:06;97894.66;;;19.50;36.55
47785;BME280;35233;55.686;37.848;2023-12-20T02:22:31;97902.00;;;19.48;36.65
47785;BME280;35233;55.686;37.848;2023-12-20T02:24:57;97893.41;;;19.44;36.56
47785;BME280;35233;55.686;37.848;2023-12-20T02:27:23;97884.38;;;19.45;36.57
47785;BME280;35233;55.686;37.848;2023-12-20T02:29:50;97880.72;;;19.46;36.55
47785;BME280;35233;55.686;37.848;2023-12-20T02:32:17;97881.41;;;19.48;36.40
47785;BME280;35233;55.686;37.848;2023-12-20T02:34:43;97884.91;;;19.49;36.57
47785;BME280;35233;55.686;37.848;2023-12-20T02:37:08;97877.03;;;19.47;36.43
47785;BME280;35233;55.686;37.848;2023-12-20T02:39:34;97873.38;;;19.48;36.36
47785;BME280;35233;55.686;37.848;2023-12-20T02:41:59;97871.81;;;19.45;36.55
47785;BME280;35233;55.686;37.848;2023-12-20T02:44:25;97871.69;;;19.47;36.30
47785;BME280;35233;55.686;37.848;2023-12-20T02:46:51;97878.72;;;19.48;36.58
47785;BME280;35233;55.686;37.848;2023-12-20T02:49:16;97890.56;;;19.45;36.55
47785;BME280;35233;55.686;37.848;2023-12-20T02:51:42;97887.59;;;19.49;36.58
47785;BME280;35233;55.686;37.848;2023-12-20T02:54:07;97886.63;;;19.50;36.34
47785;BME280;35233;55.686;37.848;2023-12-20T02:56:33;97895.63;;;19.49;36.33
47785;BME280;35233;55.686;37.848;2023-12-20T02:58:59;97893.13;;;19.47;36.42
47785;BME280;35233;55.686;37.848;2023-12-20T03:01:24;97891.13;;;19.39;36.38
47785;BME280;35233;55.686;37.848;2023-12-20T03:03:50;97900.88;;;19.50;36.06
47785;BME280;35233;55.686;37.848;2023-12-20T03:06:17;97900.88;;;19.50;36.67
47785;BME280;35233;55.686;37.848;2023-12-20T03:08:44;97897.63;;;19.47;36.23
47785;BME280;35233;55.686;37.848;2023-12-20T03:11:09;97892.56;;;19.43;36.36
47785;BME280;35233;55.686;37.848;2023-12-20T03:13:35;97888.31;;;19.51;36.39
47785;BME280;35233;55.686;37.848;2023-12-20T03:16:00;97886.63;;;19.50;36.48
47785;BME280;35233;55.686;37.848;2023-12-20T03:18:26;97888.47;;;19.49;36.20
47785;BME280;35233;55.686;37.848;2023-12-20T03:20:53;97890.88;;;19.52;36.20
47785;BME280;35233;55.686;37.848;2023-12-20T03:23:19;97893.38;;;19.54;36.06
47785;BME280;35233;55.686;37.848;2023-12-20T03:25:44;97890.00;;;19.52;36.07
47785;BME280;35233;55.686;37.848;2023-12-20T03:28:10;97889.16;;;19.51;36.30
47785;BME280;35233;55.686;37.848;2023-12-20T03:30:36;97874.91;;;19.51;36.22
47785;BME280;35233;55.686;37.848;2023-12-20T03:33:01;97878.84;;;19.56;36.34
47785;BME280;35233;55.686;37.848;2023-12-20T03:35:27;97885.63;;;19.51;36.05
47785;BME280;35233;55.686;37.848;2023-12-20T03:37:52;97896.06;;;19.54;36.03
47785;BME280;35233;55.686;37.848;2023-12-20T03:40:18;97894.38;;;19.53;36.22
47785;BME280;35233;55.686;37.848;2023-12-20T03:42:44;97888.19;;;19.52;36.28
47785;BME280;35233;55.686;37.848;2023-12-20T03:45:09;97894.94;;;19.56;36.30
47785;BME280;35233;55.686;37.848;2023-12-20T03:47:35;97886.19;;;19.54;36.10
47785;BME280;35233;55.686;37.848;2023-12-20T03:50:00;97884.50;;;19.53;36.13
47785;BME280;35233;55.686;37.848;2023-12-20T03:52:26;97891.53;;;19.54;36.44
47785;BME280;35233;55.686;37.848;2023-12-20T03:54:51;97889.03;;;19.53;36.26
47785;BME280;35233;55.686;37.848;2023-12-20T03:57:17;97890.41;;;19.57;36.12
47785;BME280;35233;55.686;37.848;2023-12-20T03:59:43;97897.47;;;19.58;36.27
47785;BME280;35233;55.686;37.848;2023-12-20T04:02:08;97889.44;;;19.58;36.19
47785;BME280;35233;55.686;37.848;2023-12-20T04:04:34;97894.09;;;19.56;36.08
47785;BME280;35233;55.686;37.848;2023-12-20T04:06:59;97890.13;;;19.60;35.88
47785;BME280;35233;55.686;37.848;2023-12-20T04:09:25;97902.41;;;19.62;36.00
47785;BME280;35233;55.686;37.848;2023-12-20T04:11:50;97902.41;;;19.62;36.20
47785;BME280;35233;55.686;37.848;2023-12-20T04:14:16;97905.78;;;19.64;36.01
47785;BME280;35233;55.686;37.848;2023-12-20T04:16:42;97904.22;;;19.62;36.26
47785;BME280;35233;55.686;37.848;2023-12-20T04:19:08;97900.00;;;19.59;36.22
47785;BME280;35233;55.686;37.848;2023-12-20T04:21:33;97901.00;;;19.58;36.17
47785;BME280;35233;55.686;37.848;2023-12-20T04:23:59;97895.66;;;19.58;36.06
47785;BME280;35233;55.686;37.848;2023-12-20T04:26:24;97893.25;;;19.55;36.02
47785;BME280;35233;55.686;37.848;2023-12-20T04:28:50;97894.81;;;19.58;36.26
47785;BME280;35233;55.686;37.848;2023-12-20T04:31:15;97894.94;;;19.56;36.19
47785;BME280;35233;55.686;37.848;2023-12-20T04:33:41;97901.84;;;19.59;36.27
47785;BME280;35233;55.686;37.848;2023-12-20T04:36:07;97903.41;;;19.61;36.26
47785;BME280;35233;55.686;37.848;2023-12-20T04:38:34;97906.78;;;19.63;36.77
47785;BME280;35233;55.686;37.848;2023-12-20T04:40:59;97911.69;;;19.78;36.79
47785;BME280;35233;55.686;37.848;2023-12-20T04:43:25;97916.09;;;20.63;36.00
47785;BME280;35233;55.686;37.848;2023-12-20T04:45:51;97902.53;;;20.83;36.14
47785;BME280;35233;55.686;37.848;2023-12-20T04:48:16;97912.09;;;20.67;36.36
47785;BME280;35233;55.686;37.848;2023-12-20T04:50:42;97910.69;;;19.88;37.06
47785;BME280;35233;55.686;37.848;2023-12-20T04:53:07;97904.25;;;19.52;38.02
47785;BME280;35233;55.686;37.848;2023-12-20T04:55:33;97909.91;;;19.49;38.30
47785;BME280;35233;55.686;37.848;2023-12-20T04:57:59;97907.34;;;19.38;38.12
47785;BME280;35233;55.686;37.848;2023-12-20T05:00:24;97907.78;;;19.33;38.17
47785;BME280;35233;55.686;37.848;2023-12-20T05:02:50;97914.69;;;19.26;38.24
47785;BME280;35233;55.686;37.848;2023-12-20T05:05:15;97917.94;;;19.30;38.32
47785;BME280;35233;55.686;37.848;2023-12-20T05:07:43;97908.19;;;19.19;38.35
47785;BME280;35233;55.686;37.848;2023-12-20T05:10:09;97929.03;;;19.15;38.33
47785;BME280;35233;55.686;37.848;2023-12-20T05:12:35;97907.63;;;19.15;38.42
47785;BME280;35233;55.686;37.848;2023-12-20T05:15:01;97902.00;;;19.09;38.18
47785;BME280;35233;55.686;37.848;2023-12-20T05:17:26;97920.75;;;19.09;38.03
47785;BME280;35233;55.686;37.848;2023-12-20T05:19:52;97909.88;;;19.10;37.92
47785;BME280;35233;55.686;37.848;2023-12-20T05:22:18;97926.78;;;19.11;38.39
47785;BME280;35233;55.686;37.848;2023-12-20T05:24:45;97925.78;;;19.02;38.32
47785;BME280;35233;55.686;37.848;2023-12-20T05:27:10;97913.53;;;18.99;38.16
47785;BME280;35233;55.686;37.848;2023-12-20T05:29:36;97933.81;;;19.02;38.04
47785;BME280;35233;55.686;37.848;2023-12-20T05:32:02;97934.53;;;19.04;38.05
47785;BME280;35233;55.686;37.848;2023-12-20T05:34:30;97938.75;;;18.97;38.01
47785;BME280;35233;55.686;37.848;2023-12-20T05:36:56;97932.53;;;18.96;38.07
47785;BME280;35233;55.686;37.848;2023-12-20T05:39:21;97942.13;;;18.99;38.19
47785;BME280;35233;55.686;37.848;2023-12-20T05:41:47;97951.25;;;18.96;38.05
47785;BME280;35233;55.686;37.848;2023-12-20T05:44:13;97944.50;;;18.92;38.07
47785;BME280;35233;55.686;37.848;2023-12-20T05:46:39;97943.66;;;18.92;38.17
47785;BME280;35233;55.686;37.848;2023-12-20T05:49:05;97948.19;;;18.91;38.24
47785;BME280;35233;55.686;37.848;2023-12-20T05:51:31;97937.47;;;18.91;37.91
47785;BME280;35233;55.686;37.848;2023-12-20T05:53:56;97935.47;;;18.93;38.09
47785;BME280;35233;55.686;37.848;2023-12-20T05:56:22;97927.31;;;18.85;38.20
47785;BME280;35233;55.686;37.848;2023-12-20T05:58:48;97939.44;;;18.89;38.19
47785;BME280;35233;55.686;37.848;2023-12-20T06:01:16;97931.28;;;18.91;37.85
47785;BME280;35233;55.686;37.848;2023-12-20T06:03:45;97930.41;;;18.90;37.80
47785;BME280;35233;55.686;37.848;2023-12-20T06:06:13;97941.97;;;18.91;38.21
47785;BME280;35233;55.686;37.848;2023-12-20T06:08:39;97934.34;;;18.86;38.08
47785;BME280;35233;55.686;37.848;2023-12-20T06:11:05;97939.97;;;18.83;38.13
47785;BME280;35233;55.686;37.848;2023-12-20T06:13:33;97927.31;;;18.85;38.03
47785;BME280;35233;55.686;37.848;2023-12-20T06:15:59;97950.41;;;18.86;38.07
47785;BME280;35233;55.686;37.848;2023-12-20T06:18:24;97954.78;;;18.87;38.17
47785;BME280;35233;55.686;37.848;2023-12-20T06:20:50;97951.69;;;18.82;38.36
47785;BME280;35233;55.686;37.848;2023-12-20T06:23:16;97948.72;;;18.85;37.96
47785;BME280;35233;55.686;37.848;2023-12-20T06:25:41;97948.13;;;18.82;38.09
47785;BME280;35233;55.686;37.848;2023-12-20T06:28:07;97954.78;;;18.87;38.15
47785;BME280;35233;55.686;37.848;2023-12-20T06:30:35;97962.09;;;18.85;37.97
47785;BME280;35233;55.686;37.848;2023-12-20T06:33:01;97962.22;;;18.84;37.86
47785;BME280;35233;55.686;37.848;2023-12-20T06:35:26;97962.50;;;18.90;37.82
47785;BME280;35233;55.686;37.848;2023-12-20T06:37:52;97950.97;;;18.90;37.84
47785;BME280;35233;55.686;37.848;2023-12-20T06:40:18;97956.31;;;18.90;37.95
47785;BME280;35233;55.686;37.848;2023-12-20T06:42:44;97929.84;;;18.87;37.96
47785;BME280;35233;55.686;37.848;2023-12-20T06:45:10;97956.88;;;18.93;37.84
47785;BME280;35233;55.686;37.848;2023-12-20T06:47:35;97954.81;;;18.97;38.06
47785;BME280;35233;55.686;37.848;2023-12-20T06:50:01;97944.50;;;18.92;37.88
47785;BME280;35233;55.686;37.848;2023-12-20T06:52:27;97940.53;;;18.87;37.91
47785;BME280;35233;55.686;37.848;2023-12-20T06:54:52;97949.72;;;18.94;38.06
47785;BME280;35233;55.686;37.848;2023-12-20T06:57:18;97951.53;;;18.93;38.08
47785;BME280;35233;55.686;37.848;2023-12-20T06:59:45;97944.06;;;18.87;38.05
47785;BME280;35233;55.686;37.848;2023-12-20T07:02:11;97943.50;;;18.93;37.90
47785;BME280;35233;55.686;37.848;2023-12-20T07:04:43;97949.47;;;18.97;37.61
47785;BME280;35233;55.686;37.848;2023-12-20T07:07:11;97953.81;;;18.98;37.94
47785;BME280;35233;55.686;37.848;2023-12-20T07:09:37;97952.97;;;18.97;37.78
47785;BME280;35233;55.686;37.848;2023-12-20T07:12:04;97952.97;;;18.97;37.71
47785;BME280;35233;55.686;37.848;2023-12-20T07:14:30;97960.28;;;18.95;37.82
47785;BME280;35233;55.686;37.848;2023-12-20T07:16:55;97963.25;;;19.02;37.59
47785;BME280;35233;55.686;37.848;2023-12-20T07:19:21;97961.97;;;18.96;37.92
47785;BME280;35233;55.686;37.848;2023-12-20T07:21:46;97963.81;;;18.96;37.90
47785;BME280;35233;55.686;37.848;2023-12-20T07:24:12;97961.00;;;18.97;37.51
47785;BME280;35233;55.686;37.848;2023-12-20T07:26:38;97960.72;;;19.00;37.57
47785;BME280;35233;55.686;37.848;2023-12-20T07:29:04;97968.19;;;18.97;37.86
47785;BME280;35233;55.686;37.848;2023-12-20T07:31:30;97960.00;;;18.98;37.55
47785;BME280;35233;55.686;37.848;2023-12-20T07:33:56;97971.44;;;19.00;37.76
47785;BME280;35233;55.686;37.848;2023-12-20T07:36:21;97966.47;;;18.96;37.71
47785;BME280;35233;55.686;37.848;2023-12-20T07:38:47;97981.41;;;18.98;37.85
47785;BME280;35233;55.686;37.848;2023-12-20T07:41:13;97982.13;;;19.00;37.74
47785;BME280;35233;55.686;37.848;2023-12-20T07:43:41;97986.75;;;18.98;37.91
47785;BME280;35233;55.686;37.848;2023-12-20T07:46:09;97981.41;;;18.98;37.69
47785;BME280;35233;55.686;37.848;2023-12-20T07:48:35;97988.47;;;18.99;37.83
47785;BME280;35233;55.686;37.848;2023-12-20T07:51:02;97990.16;;;19.00;37.87
47785;BME280;35233;55.686;37.848;2023-12-20T07:53:27;97990.72;;;19.04;37.48
47785;BME280;35233;55.686;37.848;2023-12-20T07:55:53;97988.06;;;19.04;37.83
47785;BME280;35233;55.686;37.848;2023-12-20T07:58:19;97999.59;;;19.05;37.36
47785;BME280;35233;55.686;37.848;2023-12-20T08:00:45;97982.69;;;18.94;37.79
47785;BME280;35233;55.686;37.848;2023-12-20T08:03:11;97997.63;;;18.97;37.83
47785;BME280;35233;55.686;37.848;2023-12-20T08:05:37;98000.03;;;19.00;37.78
47785;BME280;35233;55.686;37.848;2023-12-20T08:08:04;98011.69;;;18.99;37.70
47785;BME280;35233;55.686;37.848;2023-12-20T08:10:30;97993.84;;;18.99;37.60
47785;BME280;35233;55.686;37.848;2023-12-20T08:12:56;97991.69;;;18.93;37.43
47785;BME280;35233;55.686;37.848;2023-12-20T08:15:22;98004.09;;;18.94;37.92
47785;BME280;35233;55.686;37.848;2023-12-20T08:17:47;97996.75;;;18.96;37.43
47785;BME280;35233;55.686;37.848;2023-12-20T08:20:14;97993.22;;;18.96;37.49
47785;BME280;35233;55.686;37.848;2023-12-20T08:22:40;97995.25;;;19.04;37.16
47785;BME280;35233;55.686;37.848;2023-12-20T08:25:06;97994.94;;;18.97;37.67
47785;BME280;35233;55.686;37.848;2023-12-20T08:27:31;98001.97;;;18.98;37.42
47785;BME280;35233;55.686;37.848;2023-12-20T08:29:57;97986.47;;;18.92;37.70
47785;BME280;35233;55.686;37.848;2023-12-20T08:32:25;97999.03;;;19.01;37.42
47785;BME280;35233;55.686;37.848;2023-12-20T08:34:52;97992.69;;;19.02;37.43
47785;BME280;35233;55.686;37.848;2023-12-20T08:37:17;97996.34;;;19.01;37.73
47785;BME280;35233;55.686;37.848;2023-12-20T08:39:43;97993.56;;;19.03;37.48
47785;BME280;35233;55.686;37.848;2023-12-20T08:42:09;97976.63;;;19.02;37.42
47785;BME280;35233;55.686;37.848;2023-12-20T08:44:35;97980.84;;;19.05;37.63
47785;BME280;35233;55.686;37.848;2023-12-20T08:47:01;97976.63;;;19.02;37.58
47785;BME280;35233;55.686;37.848;2023-12-20T08:49:27;97979.19;;;19.04;37.50
47785;BME280;35233;55.686;37.848;2023-12-20T08:51:53;97983.53;;;19.05;37.56
47785;BME280;35233;55.686;37.848;2023-12-20T08:54:19;97977.06;;;18.97;37.39
47785;BME280;35233;55.686;37.848;2023-12-20T08:56:45;97981.13;;;19.02;37.42
47785;BME280;35233;55.686;37.848;2023-12-20T08:59:11;97976.06;;;18.98;37.13
47785;BME280;35233;55.686;37.848;2023-12-20T09:01:37;97978.34;;;19.03;37.27
47785;BME280;35233;55.686;37.848;2023-12-20T09:04:03;97983.97;;;19.00;37.54
47785;BME280;35233;55.686;37.848;2023-12-20T09:06:28;97984.53;;;19.04;37.50
47785;BME280;35233;55.686;37.848;2023-12-20T09:08:54;97969.88;;;18.98;37.28
47785;BME280;35233;55.686;37.848;2023-12-20T09:11:20;97980.84;;;18.95;37.31
47785;BME280;35233;55.686;37.848;2023-12-20T09:13:45;97996.63;;;18.98;37.12
47785;BME280;35233;55.686;37.848;2023-12-20T09:16:11;97980.28;;;18.91;37.40
47785;BME280;35233;55.686;37.848;2023-12-20T09:18:38;97988.03;;;18.94;37.64
47785;BME280;35233;55.686;37.848;2023-12-20T09:21:04;97987.59;;;18.99;37.21
47785;BME280;35233;55.686;37.848;2023-12-20T09:23:29;97981.84;;;18.94;37.30
47785;BME280;35233;55.686;37.848;2023-12-20T09:26:02;97979.00;;;18.95;37.71
47785;BME280;35233;55.686;37.848;2023-12-20T09:28:28;97980.56;;;18.98;37.60
47785;BME280;35233;55.686;37.848;2023-12-20T09:30:53;97990.84;;;18.93;37.40
47785;BME280;35233;55.686;37.848;2023-12-20T09:33:27;97982.41;;;18.97;37.42
47785;BME280;35233;55.686;37.848;2023-12-20T09:35:52;97971.00;;;18.95;37.53
47785;BME280;35233;55.686;37.848;2023-12-20T09:38:18;97980.13;;;18.93;37.51
47785;BME280;35233;55.686;37.848;2023-12-20T09:40:44;97977.34;;;18.94;37.34
47785;BME280;35233;55.686;37.848;2023-12-20T09:43:19;97971.13;;;18.94;37.20
47785;BME280;35233;55.686;37.848;2023-12-20T09:45:47;97976.50;;;18.94;37.12
47785;BME280;35233;55.686;37.848;2023-12-20T09:48:15;97967.03;;;18.90;37.54
47785;BME280;35233;55.686;37.848;2023-12-20T09:50:43;97965.91;;;18.92;37.39
47785;BME280;35233;55.686;37.848;2023-12-20T09:53:12;97962.25;;;18.93;37.23
47785;BME280;35233;55.686;37.848;2023-12-20T09:55:41;97963.38;;;18.91;37.32
47785;BME280;35233;55.686;37.848;2023-12-20T09:58:07;97962.50;;;18.90;37.16
47785;BME280;35233;55.686;37.848;2023-12-20T10:00:34;97976.34;;;18.95;37.21
47785;BME280;35233;55.686;37.848;2023-12-20T10:03:00;97972.09;;;18.93;37.53
47785;BME280;35233;55.686;37.848;2023-12-20T10:05:31;97978.28;;;18.93;37.32
47785;BME280;35233;55.686;37.848;2023-12-20T10:07:57;97972.94;;;18.93;37.18
47785;BME280;35233;55.686;37.848;2023-12-20T10:10:23;97977.59;;;18.91;37.54
47785;BME280;35233;55.686;37.848;2023-12-20T10:13:09;97973.22;;;18.90;37.33
47785;BME280;35233;55.686;37.848;2023-12-20T10:15:36;97976.50;;;18.94;37.36
47785;BME280;35233;55.686;37.848;2023-12-20T10:18:03;97981.13;;;18.92;37.48
47785;BME280;35233;55.686;37.848;2023-12-20T10:20:30;97978.00;;;18.87;37.43
47785;BME280;35233;55.686;37.848;2023-12-20T10:22:57;97988.16;;;18.93;37.79
47785;BME280;35233;55.686;37.848;2023-12-20T10:25:23;97993.94;;;18.88;37.56
47785;BME280;35233;55.686;37.848;2023-12-20T10:27:50;97986.59;;;18.90;37.60
47785;BME280;35233;55.686;37.848;2023-12-20T10:30:33;97994.78;;;18.89;37.25
47785;BME280;35233;55.686;37.848;2023-12-20T10:32:59;97997.44;;;18.89;37.56
47785;BME280;35233;55.686;37.848;2023-12-20T10:35:25;97998.56;;;18.86;37.62
47785;BME280;35233;55.686;37.848;2023-12-20T10:37:55;97989.97;;;18.83;37.61
47785;BME280;35233;55.686;37.848;2023-12-20T10:40:26;97997.84;;;18.84;37.77
47785;BME280;35233;55.686;37.848;2023-12-20T10:42:56;97993.22;;;18.86;37.55
47785;BME280;35233;55.686;37.848;2023-12-20T10:45:22;97994.06;;;18.87;37.57
47785;BME280;35233;55.686;37.848;2023-12-20T10:47:49;97993.94;;;18.88;37.35
47785;BME280;35233;55.686;37.848;2023-12-20T10:50:15;97989.97;;;18.83;37.72
47785;BME280;35233;55.686;37.848;2023-12-20T10:52:42;97992.22;;;18.87;37.62
47785;BME280;35233;55.686;37.848;2023-12-20T10:55:10;97998.56;;;18.86;37.70
47785;BME280;35233;55.686;37.848;2023-12-20T10:57:36;97994.91;;;18.87;37.40
47785;BME280;35233;55.686;37.848;2023-12-20T11:00:03;97999.41;;;18.87;37.52
47785;BME280;35233;55.686;37.848;2023-12-20T11:02:35;97998.56;;;18.86;37.44
47785;BME280;35233;55.686;37.848;2023-12-20T11:06:12;98009.84;;;18.90;37.61
47785;BME280;35233;55.686;37.848;2023-12-20T11:08:39;98004.63;;;18.88;37.62
47785;BME280;35233;55.686;37.848;2023-12-20T11:11:27;98002.94;;;18.87;37.84
47785;BME280;35233;55.686;37.848;2023-12-20T11:13:57;98010.84;;;18.89;37.81
47785;BME280;35233;55.686;37.848;2023-12-20T11:16:25;97997.44;;;18.89;37.57
47785;BME280;35233;55.686;37.848;2023-12-20T11:18:51;98003.91;;;18.86;37.54
47785;BME280;35233;55.686;37.848;2023-12-20T11:21:20;98000.25;;;18.87;37.58
47785;BME280;35233;55.686;37.848;2023-12-20T11:23:46;98001.78;;;18.80;37.43
47785;BME280;35233;55.686;37.848;2023-12-20T11:26:15;98006.31;;;18.89;37.47
47785;BME280;35233;55.686;37.848;2023-12-20T11:28:41;98000.25;;;18.87;37.50
47785;BME280;35233;55.686;37.848;2023-12-20T11:31:07;98003.91;;;18.86;37.58
47785;BME280;35233;55.686;37.848;2023-12-20T11:33:37;98008.44;;;18.86;37.70
47785;BME280;35233;55.686;37.848;2023-12-20T11:36:03;97993.22;;;18.86;37.54
47785;BME280;35233;55.686;37.848;2023-12-20T11:38:38;97993.94;;;18.88;37.40
47785;BME280;35233;55.686;37.848;2023-12-20T11:41:06;97992.22;;;18.87;37.76
47785;BME280;35233;55.686;37.848;2023-12-20T11:43:36;97993.22;;;18.86;37.63
47785;BME280;35233;55.686;37.848;2023-12-20T11:46:06;97987.59;;;18.89;37.57
47785;BME280;35233;55.686;37.848;2023-12-20T11:48:33;97983.91;;;18.90;37.59
47785;BME280;35233;55.686;37.848;2023-12-20T11:50:59;97975.78;;;18.92;37.68
47785;BME280;35233;55.686;37.848;2023-12-20T11:53:25;97981.25;;;18.90;37.47
47785;BME280;35233;55.686;37.848;2023-12-20T11:55:51;97987.03;;;18.95;37.35
47785;BME280;35233;55.686;37.848;2023-12-20T11:58:17;97981.41;;;18.89;37.36
47785;BME280;35233;55.686;37.848;2023-12-20T12:00:43;97986.06;;;18.96;37.08
47785;BME280;35233;55.686;37.848;2023-12-20T12:03:09;97985.03;;;18.88;37.70
47785;BME280;35233;55.686;37.848;2023-12-20T12:05:35;97993.50;;;18.93;37.33
47785;BME280;35233;55.686;37.848;2023-12-20T12:08:02;97984.78;;;18.91;37.52
47785;BME280;35233;55.686;37.848;2023-12-20T12:10:29;97982.69;;;18.94;37.15
47785;BME280;35233;55.686;37.848;2023-12-20T12:12:57;97980.00;;;18.94;37.65
47785;BME280;35233;55.686;37.848;2023-12-20T12:15:23;97988.72;;;18.96;37.31
47785;BME280;35233;55.686;37.848;2023-12-20T12:17:55;97990.72;;;18.94;37.21
47785;BME280;35233;55.686;37.848;2023-12-20T12:20:22;98006.88;;;18.93;37.42
47785;BME280;35233;55.686;37.848;2023-12-20T12:23:04;97993.38;;;18.94;37.27
47785;BME280;35233;55.686;37.848;2023-12-20T12:25:31;97993.50;;;18.93;37.56
47785;BME280;35233;55.686;37.848;2023-12-20T12:27:58;98003.38;;;18.92;37.59
47785;BME280;35233;55.686;37.848;2023-12-20T12:30:24;98008.59;;;18.94;37.47
47785;BME280;35233;55.686;37.848;2023-12-20T12:32:53;98007.59;;;18.95;37.39
47785;BME280;35233;55.686;37.848;2023-12-20T12:35:19;98003.38;;;18.92;37.27
47785;BME280;35233;55.686;37.848;2023-12-20T12:37:45;98011.56;;;18.91;37.65
47785;BME280;35233;55.686;37.848;2023-12-20T12:40:13;98016.75;;;18.92;37.45
47785;BME280;35233;55.686;37.848;2023-12-20T12:42:40;98019.03;;;18.97;37.74
47785;BME280;35233;55.686;37.848;2023-12-20T12:45:06;98022.81;;;18.94;37.63
47785;BME280;35233;55.686;37.848;2023-12-20T12:47:32;98029.72;;;18.97;37.56